createdAt,value
2022-11-29T00:09:27.444Z,8.58
2022-11-29T00:19:29.240Z,8.66
2022-11-29T00:29:30.909Z,8.75
2022-11-29T00:39:32.345Z,8.65
2022-11-29T00:49:33.979Z,8.56
2022-11-29T00:59:35.408Z,8.73
2022-11-29T01:09:36.848Z,8.73
2022-11-29T01:19:38.886Z,8.51
2022-11-29T01:29:40.431Z,8.46
2022-11-29T01:39:42.681Z,8.66
2022-11-29T01:49:46.759Z,8.66
2022-11-29T01:59:52.234Z,8.68
2022-11-29T02:09:53.717Z,8.60
2022-11-29T02:20:17.506Z,8.64
2022-11-29T02:30:57.585Z,8.75
2022-11-29T02:41:04.877Z,8.76
2022-11-29T02:51:09.336Z,8.63
2022-11-29T03:01:18.344Z,8.52
2022-11-29T03:11:31.989Z,8.60
2022-11-29T03:22:16.164Z,8.51
2022-11-29T03:32:33.977Z,8.65
2022-11-29T03:42:45.372Z,8.86
2022-11-29T03:52:53.918Z,8.71
2022-11-29T04:03:17.145Z,8.57
2022-11-29T04:13:30.868Z,8.69
2022-11-29T04:24:08.883Z,8.63
2022-11-29T04:34:28.661Z,8.63
2022-11-29T04:44:36.223Z,8.42
2022-11-29T04:54:49.911Z,8.75
2022-11-29T05:05:11.571Z,8.71
2022-11-29T05:15:59.674Z,8.73
2022-11-29T05:26:09.317Z,8.91
2022-11-29T05:36:43.339Z,8.99
2022-11-29T05:46:56.869Z,8.75
2022-11-29T05:57:26.872Z,8.93
2022-11-29T06:08:01.124Z,8.89
2022-11-29T06:18:44.783Z,9.06
2022-11-29T06:29:25.379Z,8.89
2022-11-29T06:39:27.165Z,9.02
2022-11-29T06:49:54.093Z,9.11
2022-11-29T07:00:11.631Z,9.11
2022-11-29T07:10:18.181Z,9.03
2022-11-29T07:20:44.574Z,8.98
2022-11-29T07:30:57.434Z,9.16
2022-11-29T07:41:20.477Z,9.07
2022-11-29T07:51:22.092Z,9.25
2022-11-29T08:01:23.676Z,9.32
2022-11-29T08:11:26.540Z,9.41
2022-11-29T08:21:28.176Z,9.30
2022-11-29T08:31:29.660Z,9.56
2022-11-29T08:41:31.168Z,9.47
2022-11-29T08:51:32.618Z,9.83
2022-11-29T09:01:34.286Z,9.83
2022-11-29T09:11:36.953Z,9.96
2022-11-29T09:21:38.409Z,9.97
2022-11-29T09:31:40.133Z,10.31
2022-11-29T09:41:50.414Z,10.61
2022-11-29T09:52:19.585Z,10.65
2022-11-29T10:02:42.127Z,10.79
2022-11-29T10:12:52.395Z,11.06
2022-11-29T10:23:03.052Z,11.22
2022-11-29T10:33:25.400Z,11.01
2022-11-29T10:43:26.941Z,10.95
2022-11-29T10:53:35.989Z,11.42
2022-11-29T11:03:41.272Z,11.38
2022-11-29T11:13:42.824Z,11.08
2022-11-29T11:24:01.791Z,11.17
2022-11-29T11:34:36.598Z,10.92
2022-11-29T11:44:49.336Z,11.02
2022-11-29T11:54:57.107Z,11.30
2022-11-29T12:05:02.725Z,11.26
2022-11-29T12:15:16.208Z,11.35
2022-11-29T12:25:23.315Z,11.11
2022-11-29T12:35:46.251Z,11.32
2022-11-29T12:46:12.822Z,11.61
2022-11-29T12:56:36.160Z,11.15
2022-11-29T13:07:02.515Z,11.21
2022-11-29T13:17:12.206Z,11.30
2022-11-29T13:27:19.385Z,11.33
2022-11-29T13:37:30.673Z,11.02
2022-11-29T13:47:32.187Z,10.63
2022-11-29T13:58:15.403Z,10.55
2022-11-29T14:08:54.500Z,10.95
2022-11-29T14:19:31.631Z,10.63
2022-11-29T14:30:24.587Z,10.69
2022-11-29T14:40:33.471Z,10.32
2022-11-29T14:50:37.967Z,10.20
2022-11-29T15:01:01.779Z,10.09
2022-11-29T15:11:51.153Z,10.24
2022-11-29T15:22:16.723Z,10.05
2022-11-29T15:32:25.854Z,9.81
2022-11-29T15:42:32.456Z,9.76
2022-11-29T15:52:38.318Z,9.98
2022-11-29T16:02:47.761Z,9.81
2022-11-29T16:12:54.909Z,9.67
2022-11-29T16:23:13.472Z,9.60
2022-11-29T16:33:21.279Z,9.77
2022-11-29T16:43:48.304Z,9.48
2022-11-29T16:53:54.098Z,9.54
2022-11-29T17:03:59.978Z,9.45
2022-11-29T17:14:01.460Z,9.42
2022-11-29T17:24:02.994Z,9.03
2022-11-29T17:34:05.069Z,9.18
2022-11-29T17:44:06.492Z,9.00
2022-11-29T17:54:08.336Z,9.10
2022-11-29T18:04:09.799Z,9.27
2022-11-29T18:14:12.787Z,9.38
2022-11-29T18:24:14.315Z,9.46
2022-11-29T18:34:15.911Z,9.14
2022-11-29T18:44:20.165Z,8.99
2022-11-29T18:54:21.756Z,9.13
2022-11-29T19:04:23.250Z,9.29
2022-11-29T19:14:24.759Z,9.24
2022-11-29T19:24:26.175Z,9.56
2022-11-29T19:34:27.592Z,9.60
2022-11-29T19:44:30.211Z,9.59
2022-11-29T19:54:32.901Z,9.57
2022-11-29T20:04:34.440Z,9.50
2022-11-29T20:14:35.993Z,9.54
2022-11-29T20:24:42.612Z,9.66
2022-11-29T20:34:47.086Z,9.73
2022-11-29T20:44:58.674Z,9.73
2022-11-29T20:55:00.179Z,9.74
2022-11-29T21:05:01.654Z,9.65
2022-11-29T21:15:04.440Z,9.67
2022-11-29T21:25:25.416Z,9.62
2022-11-29T21:35:26.864Z,9.35
2022-11-29T21:45:28.595Z,9.42
2022-11-29T21:55:32.013Z,9.28
2022-11-29T22:05:34.005Z,9.52
2022-11-29T22:15:35.456Z,9.48
2022-11-29T22:25:36.904Z,9.56
2022-11-29T22:35:44.599Z,9.78
2022-11-29T22:45:46.044Z,9.78
2022-11-29T22:55:47.477Z,9.80
2022-11-29T23:05:48.906Z,9.74
2022-11-29T23:15:51.971Z,9.74
2022-11-29T23:25:53.416Z,9.65
2022-11-29T23:36:06.729Z,9.76
2022-11-29T23:46:14.823Z,9.58
2022-11-29T23:56:17.978Z,9.51
